Time;durP1;ratioP1;P1;durP2;ratioP2;P2;SDS_P1;SDS_P2;PMS_P1;PMS_P2;Temp;Humidity;BMP_temperature;BMP_pressure;BME280_temperature;BME280_humidity;BME280_pressure;Samples;Min_cycle;Max_cycle;Signal;HPM_P1;HPM_P2
2022/04/06 00:00:14;;;;;;;7.27;5.70;;;;;;;11.65;57.87;100076.19;5070430;28;20049;-84
2022/04/06 00:02:42;;;;;;;7.03;3.97;;;;;;;10.15;57.89;99844.38;5083794;28;20045;-85
2022/04/06 00:05:10;;;;;;;14.47;5.23;;;;;;;12.08;57.81;100133.84;5074875;28;20056;-84
2022/04/06 00:07:42;;;;;;;10.03;5.83;;;;;;;11.84;57.71;100082.69;5074819;28;20048;-85
2022/04/06 00:10:12;;;;;;;11.43;5.07;;;;;;;11.31;57.61;99998.88;5081230;28;20044;-83
2022/04/06 00:12:42;;;;;;;13.83;5.40;;;;;;;11.43;57.67;100027.25;5079090;28;20049;-82
2022/04/06 00:15:11;;;;;;;9.95;5.55;;;;;;;12.17;57.66;100127.56;5079069;28;20044;-83
2022/04/06 00:17:38;;;;;;;10.73;4.40;;;;;;;11.75;57.59;100070.47;5081562;28;20044;-82
2022/04/06 00:20:07;;;;;;;7.93;4.53;;;;;;;11.94;57.86;100090.94;5077996;28;20059;-83
2022/04/06 00:22:37;;;;;;;15.30;5.37;;;;;;;11.48;58.11;100026.34;5094059;28;20071;-83
2022/04/06 00:25:05;;;;;;;6.07;2.78;;;;;;;12.05;58.08;100134.44;5078388;28;20753;-83
2022/04/06 00:27:32;;;;;;;9.83;4.80;;;;;;;12.00;58.31;100148.50;5078134;28;20037;-82
2022/04/06 00:30:00;;;;;;;7.87;4.63;;;;;;;11.99;58.41;100124.44;5069865;28;20045;-82
2022/04/06 00:32:27;;;;;;;10.03;4.87;;;;;;;11.24;58.14;100001.22;5077760;28;20041;-82
2022/04/06 00:37:40;;;;;;;8.07;5.20;;;;;;;11.95;58.38;100126.19;5078787;28;20104;-83
2022/04/06 00:40:08;;;;;;;8.13;2.57;;;;;;;11.37;58.70;100029.28;5079332;28;20048;-85
2022/04/06 00:42:36;;;;;;;5.40;3.57;;;;;;;11.07;58.53;99985.75;5079332;28;20336;-85
2022/04/06 00:45:03;;;;;;;11.20;6.43;;;;;;;11.71;58.85;100112.19;5074880;28;20570;-83
2022/04/06 00:47:31;;;;;;;11.13;4.53;;;;;;;11.76;58.81;100128.06;5077259;28;20584;-83
2022/04/06 00:50:02;;;;;;;12.70;5.93;;;;;;;11.81;58.57;100123.25;5081581;28;20049;-82
2022/04/06 00:52:29;;;;;;;9.63;6.23;;;;;;;11.81;58.67;100116.81;5074636;28;20045;-83
2022/04/06 00:54:57;;;;;;;3.10;2.60;;;;;;;10.65;58.41;99939.88;5069536;28;20055;-82
2022/04/06 00:57:25;;;;;;;12.20;4.93;;;;;;;11.77;58.33;100118.56;5075027;28;20307;-82
2022/04/06 00:59:56;;;;;;;8.80;4.63;;;;;;;11.01;58.88;100000.09;5073095;28;20382;-81
2022/04/06 01:02:24;;;;;;;9.25;5.28;;;;;;;11.70;59.22;100115.31;5072066;28;20075;-83
2022/04/06 01:04:52;;;;;;;10.63;4.97;;;;;;;11.24;59.40;100045.94;5075548;28;20106;-83
2022/04/06 01:07:25;;;;;;;10.10;4.20;;;;;;;11.34;59.48;100048.63;5077101;28;20090;-83
2022/04/06 01:09:52;;;;;;;9.43;4.67;;;;;;;11.43;59.39;100069.19;5074896;28;20082;-82
2022/04/06 01:12:21;;;;;;;8.63;5.47;;;;;;;11.33;59.86;100074.91;5071267;28;20045;-83
2022/04/06 01:14:49;;;;;;;9.63;4.47;;;;;;;11.10;60.13;100032.66;5073932;28;20063;-84
2022/04/06 01:17:20;;;;;;;12.53;5.90;;;;;;;11.61;60.16;100113.16;5074670;28;20044;-83
2022/04/06 01:19:47;;;;;;;6.73;4.23;;;;;;;10.82;60.35;99988.84;5076832;28;20052;-84
2022/04/06 01:22:17;;;;;;;7.40;5.10;;;;;;;11.62;60.38;100113.97;5082488;28;20053;-83
2022/04/06 01:24:46;;;;;;;11.70;6.45;;;;;;;11.62;60.37;100126.03;5079892;28;20052;-82
2022/04/06 01:27:15;;;;;;;8.70;4.83;;;;;;;11.63;60.07;100121.25;5083530;28;20056;-83
2022/04/06 01:29:43;;;;;;;9.83;5.83;;;;;;;11.62;60.13;100131.63;5078132;28;20067;-83
2022/04/06 01:32:15;;;;;;;11.03;6.13;;;;;;;11.54;60.58;100107.09;5098277;28;20082;-83
2022/04/06 01:34:44;;;;;;;11.33;4.37;;;;;;;10.90;60.60;100011.38;5082053;28;20131;-83
2022/04/06 01:37:13;;;;;;;8.47;4.20;;;;;;;11.07;60.99;100041.66;5080488;28;20047;-83
2022/04/06 01:39:43;;;;;;;12.07;5.40;;;;;;;11.04;60.81;100035.81;5077773;28;20052;-81
2022/04/06 01:42:14;;;;;;;10.77;5.22;;;;;;;11.38;61.35;100112.03;5078772;28;20048;-82
2022/04/06 01:44:44;;;;;;;6.03;4.93;;;;;;;10.96;61.31;100045.69;5080915;28;20044;-83
2022/04/06 01:47:13;;;;;;;10.48;6.03;;;;;;;10.45;60.99;99956.84;5079003;28;20040;-82
2022/04/06 01:52:26;;;;;;;15.67;5.57;;;;;;;11.05;61.28;100063.47;5082951;28;20114;-83
2022/04/06 01:54:56;;;;;;;10.60;5.23;;;;;;;10.65;61.56;100001.31;5084003;28;20106;-83
2022/04/06 01:57:24;;;;;;;8.52;3.45;;;;;;;10.92;61.32;100050.19;5081098;28;20051;-81
2022/04/06 01:59:51;;;;;;;17.13;6.53;;;;;;;11.38;61.11;100105.59;5076198;28;20048;-81
2022/04/06 02:02:21;;;;;;;8.63;4.93;;;;;;;10.80;61.13;100007.84;5075522;28;20061;-84
2022/04/06 02:04:49;;;;;;;12.13;6.50;;;;;;;10.64;61.07;99988.47;5080760;28;20048;-81
2022/04/06 02:07:17;;;;;;;11.90;4.80;;;;;;;10.39;60.88;99952.44;5078573;28;20044;-83
2022/04/06 02:09:45;;;;;;;12.23;5.57;;;;;;;10.61;60.56;99966.72;5079923;28;20531;-83
2022/04/06 02:12:13;;;;;;;5.97;3.33;;;;;;;11.33;60.48;100088.88;5072419;28;20045;-83
2022/04/06 02:14:41;;;;;;;7.17;3.93;;;;;;;11.20;60.97;100067.22;5081083;28;20044;-82
2022/04/06 02:17:10;;;;;;;8.20;4.40;;;;;;;10.81;61.08;99998.38;5097762;28;20349;-82
2022/04/06 02:19:39;;;;;;;10.33;5.03;;;;;;;11.20;61.43;100092.38;5080849;28;20049;-83
2022/04/06 02:22:07;;;;;;;11.33;5.30;;;;;;;11.21;61.61;100068.88;5082454;28;20052;-83
2022/04/06 02:24:35;;;;;;;13.03;5.70;;;;;;;10.86;61.85;100029.03;5071776;28;20080;-83
2022/04/06 02:27:05;;;;;;;12.27;5.63;;;;;;;10.71;62.04;99987.31;5071180;28;20107;-82
2022/04/06 02:29:32;;;;;;;18.48;7.15;;;;;;;11.14;61.57;100042.16;5069792;28;20044;-83
2022/04/06 02:31:59;;;;;;;10.17;6.90;;;;;;;11.48;61.41;100111.06;5079351;28;20052;-83
2022/04/06 02:34:26;;;;;;;10.47;6.60;;;;;;;11.12;61.62;100037.97;5080533;28;20052;-84
2022/04/06 02:36:54;;;;;;;7.67;5.37;;;;;;;10.50;61.83;99934.47;5097053;28;20053;-82
2022/04/06 02:39:21;;;;;;;9.77;5.17;;;;;;;11.18;61.43;100047.13;5078177;28;20887;-82
2022/04/06 02:41:48;;;;;;;21.53;8.13;;;;;;;11.32;61.81;100060.09;5079697;28;20060;-81
2022/04/06 02:44:16;;;;;;;15.77;6.90;;;;;;;11.61;61.03;100095.53;5075872;28;20381;-84
2022/04/06 02:46:50;;;;;;;5.03;2.70;;;;;;;10.76;61.37;99957.34;5071612;28;20052;-83
2022/04/06 02:49:17;;;;;;;8.20;4.13;;;;;;;11.11;61.33;100059.50;5077964;28;20040;-84
2022/04/06 02:51:45;;;;;;;7.40;4.43;;;;;;;10.82;61.20;99986.06;5079454;28;20505;-83
2022/04/06 02:54:12;;;;;;;8.43;5.47;;;;;;;11.12;60.63;100038.81;5079168;28;20044;-83
2022/04/06 02:56:39;;;;;;;11.00;5.53;;;;;;;10.74;61.14;99989.50;5084930;28;20049;-82
2022/04/06 02:59:10;;;;;;;8.37;3.97;;;;;;;10.35;60.78;99951.34;5085532;28;20044;-83
2022/04/06 03:01:37;;;;;;;11.52;5.90;;;;;;;11.28;61.16;100094.53;5086922;28;20045;-84
2022/04/06 03:04:05;;;;;;;12.60;6.53;;;;;;;11.29;60.94;100102.63;5081877;28;20056;-82
2022/04/06 03:06:32;;;;;;;17.77;7.23;;;;;;;10.85;60.97;100025.41;5083562;28;20052;-83
2022/04/06 03:08:59;;;;;;;10.97;5.47;;;;;;;11.23;61.08;100098.22;5086399;28;20051;-82
2022/04/06 03:11:26;;;;;;;16.30;6.70;;;;;;;10.27;61.11;99938.06;5084081;28;20057;-83
2022/04/06 03:13:54;;;;;;;12.23;5.53;;;;;;;11.17;61.33;100102.19;5081240;28;20044;-82
2022/04/06 03:16:21;;;;;;;11.97;4.37;;;;;;;10.10;61.30;99933.69;5086313;28;20056;-84
2022/04/06 03:18:48;;;;;;;11.50;4.40;;;;;;;11.15;61.85;100110.88;5083187;28;20075;-84
2022/04/06 03:21:15;;;;;;;12.93;4.83;;;;;;;10.53;62.05;100003.69;5084080;28;20047;-84
2022/04/06 03:23:42;;;;;;;8.50;5.33;;;;;;;11.10;62.21;100094.16;5084955;28;20113;-83
2022/04/06 03:26:11;;;;;;;11.00;5.70;;;;;;;10.85;62.63;100064.50;5080429;28;20107;-84
2022/04/06 03:28:38;;;;;;;7.37;3.90;;;;;;;10.30;62.78;100001.66;5079598;28;20071;-82
2022/04/06 03:31:07;;;;;;;9.00;3.40;;;;;;;10.44;63.10;100022.19;5075317;28;20122;-83
2022/04/06 03:33:35;;;;;;;6.03;3.27;;;;;;;10.72;63.02;100037.28;5082799;28;20119;-82
2022/04/06 03:36:02;;;;;;;11.27;5.30;;;;;;;10.56;63.38;100033.78;5084421;28;20044;-82
2022/04/06 03:38:30;;;;;;;20.33;6.03;;;;;;;10.89;63.28;100067.56;5083098;28;20539;-82
2022/04/06 03:40:57;;;;;;;10.43;5.43;;;;;;;10.38;63.24;99975.91;5083415;28;20045;-82
2022/04/06 03:43:24;;;;;;;11.57;5.43;;;;;;;10.15;63.18;99936.47;5082833;28;20044;-84
2022/04/06 03:45:52;;;;;;;14.73;5.57;;;;;;;10.38;63.22;99973.09;5080222;28;20484;-83
2022/04/06 03:48:22;;;;;;;8.93;5.00;;;;;;;11.15;63.01;100088.53;5084969;28;20045;-84
2022/04/06 03:50:53;;;;;;;7.40;4.10;;;;;;;11.02;63.39;100071.63;5080408;28;20111;-83
2022/04/06 03:53:21;;;;;;;18.53;5.87;;;;;;;10.51;63.27;100005.09;5086008;28;20052;-85
2022/04/06 03:55:49;;;;;;;6.80;3.83;;;;;;;11.19;63.12;100110.28;5080378;28;20056;-83
2022/04/06 03:58:16;;;;;;;10.90;4.53;;;;;;;11.17;63.04;100110.56;5080637;28;20041;-82
2022/04/06 04:00:43;;;;;;;8.73;4.70;;;;;;;10.86;63.14;100056.97;5083967;28;20079;-82
2022/04/06 04:03:11;;;;;;;10.73;5.87;;;;;;;11.18;62.97;100117.00;5081295;28;20053;-83
2022/04/06 04:05:38;;;;;;;9.40;4.83;;;;;;;10.79;62.60;100032.16;5079650;28;20058;-83
2022/04/06 04:08:05;;;;;;;10.77;5.33;;;;;;;10.91;62.95;100065.31;5090173;28;20045;-80
2022/04/06 04:10:33;;;;;;;8.47;4.03;;;;;;;10.97;62.96;100078.06;5086285;28;20123;-82
2022/04/06 04:13:00;;;;;;;7.37;4.20;;;;;;;11.05;63.31;100122.16;5083755;28;20056;-82
2022/04/06 04:15:27;;;;;;;13.23;4.50;;;;;;;10.80;62.74;100059.00;5081978;28;20045;-82
2022/04/06 04:17:54;;;;;;;13.40;3.90;;;;;;;10.37;63.42;100032.84;5085068;28;20488;-83
2022/04/06 04:20:22;;;;;;;7.97;3.17;;;;;;;10.91;63.44;100118.38;5082015;28;20109;-85
2022/04/06 04:22:49;;;;;;;10.13;3.67;;;;;;;10.39;63.84;100053.78;5084231;28;20051;-82
2022/04/06 04:25:16;;;;;;;16.30;5.67;;;;;;;10.33;63.29;100040.16;5082326;28;20049;-83
2022/04/06 04:27:43;;;;;;;11.60;4.20;;;;;;;10.29;63.82;100036.25;5080782;28;20132;-83
2022/04/06 04:30:11;;;;;;;12.73;6.40;;;;;;;10.41;63.20;100047.88;5084469;28;20049;-83
2022/04/06 04:32:39;;;;;;;14.53;6.20;;;;;;;9.95;63.42;99987.66;5085335;28;20045;-83
2022/04/06 04:35:08;;;;;;;13.27;4.27;;;;;;;10.40;63.46;100060.19;5083329;28;20075;-82
2022/04/06 04:37:36;;;;;;;14.87;6.87;;;;;;;10.15;63.20;100000.63;5077603;28;20106;-83
2022/04/06 04:40:04;;;;;;;15.13;4.80;;;;;;;10.77;63.44;100114.59;5079159;28;20040;-82
2022/04/06 04:42:32;;;;;;;11.13;5.60;;;;;;;9.55;63.13;99930.22;5079564;28;20102;-83
2022/04/06 04:45:00;;;;;;;13.40;6.30;;;;;;;10.82;63.09;100123.75;5082518;28;20074;-82
2022/04/06 04:47:27;;;;;;;14.13;6.33;;;;;;;10.60;63.08;100076.78;5080658;28;20048;-83
2022/04/06 04:49:54;;;;;;;10.13;5.60;;;;;;;10.42;63.12;100046.75;5079914;28;20685;-82
2022/04/06 04:52:22;;;;;;;8.87;4.63;;;;;;;10.20;63.12;100041.59;5083482;28;20044;-83
2022/04/06 04:54:49;;;;;;;17.83;5.40;;;;;;;10.67;62.81;100107.16;5082941;28;20074;-82
2022/04/06 04:57:16;;;;;;;14.60;5.83;;;;;;;10.80;62.46;100114.84;5079838;28;20063;-83
2022/04/06 04:59:43;;;;;;;11.90;6.87;;;;;;;10.83;62.43;100111.44;5082529;28;20048;-85
2022/04/06 05:02:10;;;;;;;8.47;4.43;;;;;;;11.00;62.28;100141.75;5081119;28;20082;-82
2022/04/06 05:04:37;;;;;;;12.33;6.43;;;;;;;10.54;62.28;100072.34;5079124;28;20076;-84
2022/04/06 05:07:05;;;;;;;14.27;7.00;;;;;;;10.55;62.65;100073.16;5079865;28;20045;-82
2022/04/06 05:09:32;;;;;;;12.03;6.40;;;;;;;10.98;62.40;100138.44;5078979;28;20052;-81
2022/04/06 05:12:00;;;;;;;15.77;6.77;;;;;;;10.40;61.86;100035.88;5093125;28;20102;-85
2022/04/06 05:14:27;;;;;;;8.97;5.53;;;;;;;9.93;62.68;99989.06;5078317;28;20045;-83
2022/04/06 05:16:55;;;;;;;22.23;6.73;;;;;;;10.98;62.70;100168.34;5078135;28;20067;-84
2022/04/06 05:19:22;;;;;;;12.03;5.47;;;;;;;10.37;62.78;100066.34;5078046;28;20048;-83
2022/04/06 05:21:49;;;;;;;8.27;4.63;;;;;;;10.28;62.45;100043.78;5077947;28;20217;-83
2022/04/06 05:24:16;;;;;;;17.30;5.83;;;;;;;11.00;62.32;100168.84;5077840;28;20052;-83
2022/04/06 05:26:43;;;;;;;13.67;6.17;;;;;;;10.52;61.89;100080.16;5082057;28;20059;-83
2022/04/06 05:29:10;;;;;;;15.77;6.50;;;;;;;10.67;61.79;100099.59;5076165;28;20068;-82
2022/04/06 05:31:40;;;;;;;7.87;4.93;;;;;;;10.67;61.62;100099.59;5073251;28;20045;-82
2022/04/06 05:34:08;;;;;;;13.27;5.53;;;;;;;10.17;61.45;100029.06;5072446;28;20072;-82
2022/04/06 05:36:35;;;;;;;8.83;4.23;;;;;;;9.83;62.03;99973.25;5073586;28;20056;-83
2022/04/06 05:39:03;;;;;;;10.20;5.07;;;;;;;10.99;62.10;100156.84;5076943;28;20045;-84
2022/04/06 05:41:30;;;;;;;11.17;5.97;;;;;;;10.40;62.05;100077.75;5076810;28;20101;-81
2022/04/06 05:43:57;;;;;;;11.27;5.57;;;;;;;9.77;62.44;99985.56;5079284;28;20052;-81
2022/04/06 05:46:24;;;;;;;15.53;5.67;;;;;;;10.36;62.24;100081.44;5079653;28;20040;-84
2022/04/06 05:48:52;;;;;;;6.90;4.93;;;;;;;10.26;62.22;100078.72;5077965;28;20075;-81
2022/04/06 05:51:19;;;;;;;9.90;5.23;;;;;;;10.65;62.61;100149.31;5077952;28;20056;-85
2022/04/06 05:53:46;;;;;;;7.20;4.23;;;;;;;10.90;62.55;100181.78;5082326;28;20059;-84
2022/04/06 05:56:16;;;;;;;7.80;3.10;;;;;;;10.52;63.23;100160.31;5077331;28;20044;-88
2022/04/06 05:58:44;;;;;;;10.07;5.72;;;;;;;10.13;63.29;100083.78;5073049;28;20044;-84
2022/04/06 06:01:11;;;;;;;9.43;5.07;;;;;;;9.79;62.99;100027.09;5079123;28;20052;-84
2022/04/06 06:03:38;;;;;;;11.00;5.33;;;;;;;10.87;62.77;100199.16;5084366;28;20060;-85
2022/04/06 06:06:05;;;;;;;13.83;5.13;;;;;;;10.41;62.69;100115.72;5085181;28;20048;-86
2022/04/06 06:08:32;;;;;;;10.13;4.70;;;;;;;10.65;62.58;100168.84;5081549;28;20037;-84
2022/04/06 06:11:00;;;;;;;17.90;6.50;;;;;;;10.23;62.06;100073.69;5080211;28;20065;-84
2022/04/06 06:13:27;;;;;;;10.77;6.03;;;;;;;10.32;61.95;100102.66;5076906;28;20044;-80
2022/04/06 06:15:55;;;;;;;11.20;4.37;;;;;;;11.04;61.96;100226.69;5076118;28;20056;-80
2022/04/06 06:18:24;;;;;;;10.47;5.20;;;;;;;10.46;62.06;100125.16;5078095;28;20041;-80
2022/04/06 06:20:51;;;;;;;15.33;6.10;;;;;;;10.32;61.63;100094.28;5077516;28;20056;-80
2022/04/06 06:23:18;;;;;;;11.90;5.77;;;;;;;10.78;61.63;100172.97;5081490;28;20052;-81
2022/04/06 06:25:48;;;;;;;10.27;6.03;;;;;;;10.65;61.69;100146.53;5069123;28;20440;-79
2022/04/06 06:28:15;;;;;;;12.23;5.70;;;;;;;11.13;61.60;100226.88;5069727;28;20135;-80
2022/04/06 06:30:42;;;;;;;10.60;5.17;;;;;;;10.49;61.71;100125.41;5075188;28;20106;-80
2022/04/06 06:33:09;;;;;;;13.80;5.10;;;;;;;11.04;61.61;100226.69;5075934;28;20055;-80
2022/04/06 06:35:36;;;;;;;11.67;4.80;;;;;;;11.22;61.47;100253.06;5070094;28;20149;-80
2022/04/06 06:38:03;;;;;;;11.33;4.83;;;;;;;10.97;61.47;100201.00;5069724;28;20135;-79
2022/04/06 06:40:30;;;;;;;16.83;6.00;;;;;;;11.19;61.35;100236.88;5083963;28;20057;-78
2022/04/06 06:42:57;;;;;;;12.77;6.17;;;;;;;11.11;61.78;100235.56;5066515;28;20056;-81
2022/04/06 06:45:24;;;;;;;16.60;5.27;;;;;;;10.92;61.51;100203.84;5082128;28;20040;-83
2022/04/06 06:47:51;;;;;;;12.37;5.23;;;;;;;11.06;61.44;100215.19;5075530;28;20051;-82
2022/04/06 06:50:19;;;;;;;14.23;6.60;;;;;;;11.28;61.46;100248.25;5081354;28;20049;-81
2022/04/06 06:52:47;;;;;;;11.07;4.37;;;;;;;10.98;61.33;100188.72;5075243;28;20078;-82
2022/04/06 06:55:15;;;;;;;8.23;4.40;;;;;;;11.58;61.22;100275.94;5078796;28;20055;-83
2022/04/06 06:57:43;;;;;;;12.97;4.90;;;;;;;11.00;61.27;100180.03;5080667;28;20071;-83
2022/04/06 07:00:11;;;;;;;13.37;6.13;;;;;;;11.30;60.95;100190.09;5085173;28;20071;-81
2022/04/06 07:02:40;;;;;;;10.17;5.37;;;;;;;11.55;60.69;100226.19;5085248;28;20052;-81
2022/04/06 07:05:09;;;;;;;10.00;5.87;;;;;;;11.51;60.54;100208.34;5083159;28;20068;-80
2022/04/06 07:07:52;;;;;;;9.17;5.37;;;;;;;11.88;60.85;100274.00;5081526;28;20447;-81
2022/04/06 07:10:21;;;;;;;9.67;5.17;;;;;;;12.05;60.51;100285.56;5070670;28;20048;-82
2022/04/06 07:12:48;;;;;;;15.17;5.10;;;;;;;11.94;60.32;100253.25;5077887;28;20049;-81
2022/04/06 07:15:16;;;;;;;11.87;5.23;;;;;;;12.40;60.41;100286.28;5079843;28;20513;-82
2022/04/06 07:17:43;;;;;;;10.53;5.53;;;;;;;12.65;59.76;100267.47;5077398;28;20040;-82
2022/04/06 07:20:11;;;;;;;11.63;5.93;;;;;;;12.76;59.24;100210.16;5079818;28;20061;-80
2022/04/06 07:22:41;;;;;;;12.27;5.50;;;;;;;13.08;58.74;100234.59;5079890;28;20052;-86
2022/04/06 07:25:08;;;;;;;;;;;;;;;13.57;58.06;100282.88;5080149;28;20740;-81
2022/04/06 07:27:39;;;;;;;12.93;6.33;;;;;;;13.06;57.56;100166.81;5078572;28;19974;-82
2022/04/06 07:30:11;;;;;;;9.87;5.67;;;;;;;13.61;56.83;100256.72;5078577;28;20114;-80
2022/04/06 07:32:38;;;;;;;13.00;6.20;;;;;;;14.09;56.36;100303.28;5075458;28;21349;-80
2022/04/06 07:35:07;;;;;;;15.00;5.50;;;;;;;14.20;55.95;100285.06;5088303;28;20059;-85
2022/04/06 07:37:42;;;;;;;6.33;4.40;;;;;;;14.72;55.44;100311.00;5084734;28;20048;-84
2022/04/06 07:40:12;;;;;;;10.27;5.63;;;;;;;14.64;54.77;100281.66;5084702;28;20043;-83
2022/04/06 07:42:40;;;;;;;10.95;5.13;;;;;;;14.80;54.24;100307.47;5085819;28;20049;-84
2022/04/06 07:45:16;;;;;;;8.57;5.10;;;;;;;14.28;53.78;100218.91;5083512;28;20110;-89
2022/04/06 07:47:46;;;;;;;10.97;5.87;;;;;;;14.71;53.59;100258.75;5079588;28;20056;-88
2022/04/06 07:50:14;;;;;;;16.13;5.93;;;;;;;14.53;53.07;100207.16;5081401;28;20044;-87
2022/04/06 07:52:45;;;;;;;11.87;5.67;;;;;;;15.32;52.81;100302.31;5083908;28;20044;-88
2022/04/06 07:55:13;;;;;;;12.60;5.20;;;;;;;14.02;52.41;100086.66;5091215;28;20051;-86
2022/04/06 07:57:41;;;;;;;11.90;4.90;;;;;;;15.05;51.92;100269.47;5082846;28;20048;-83
2022/04/06 08:00:09;;;;;;;10.47;5.23;;;;;;;15.49;51.83;100303.59;5081426;28;20041;-88
2022/04/06 08:02:37;;;;;;;11.30;5.60;;;;;;;14.66;51.69;100189.41;5087390;28;20103;-84
2022/04/06 08:05:05;;;;;;;9.83;5.80;;;;;;;14.61;51.39;100188.72;5079132;28;20076;-84
2022/04/06 08:07:33;;;;;;;5.70;3.13;;;;;;;15.44;51.43;100301.72;5089251;28;20074;-84
2022/04/06 08:10:00;;;;;;;6.30;2.90;;;;;;;14.34;51.55;100167.94;5080931;28;20040;-84
2022/04/06 08:12:27;;;;;;;8.47;5.57;;;;;;;15.07;51.74;100305.72;5075512;28;20045;-84
2022/04/06 08:14:54;;;;;;;8.70;5.10;;;;;;;15.00;51.54;100260.31;5087440;28;20094;-83
2022/04/06 08:17:23;;;;;;;14.17;6.30;;;;;;;15.41;51.25;100289.13;5082016;28;20056;-82
2022/04/06 08:19:50;;;;;;;13.47;5.33;;;;;;;15.73;50.54;100290.06;5082869;28;20052;-84
2022/04/06 08:22:24;;;;;;;9.73;5.57;;;;;;;15.97;50.16;100277.59;5082281;28;20044;-81
2022/04/06 08:24:51;;;;;;;13.37;5.50;;;;;;;16.32;49.63;100270.94;5075311;28;20456;-81
2022/04/06 08:27:21;;;;;;;8.27;5.10;;;;;;;16.52;48.82;100232.88;5079013;28;20052;-82
2022/04/06 08:29:55;;;;;;;8.13;4.90;;;;;;;17.21;48.41;100288.56;5083296;28;20047;-82
2022/04/06 08:32:22;;;;;;;10.00;4.65;;;;;;;17.32;47.83;100276.94;5081842;28;20090;-84
2022/04/06 08:34:49;;;;;;;8.68;5.05;;;;;;;17.65;47.57;100336.56;5082058;28;20097;-82
2022/04/06 08:37:37;;;;;;;10.93;5.20;;;;;;;18.18;47.17;100358.72;5078325;28;20056;-84
2022/04/06 08:40:11;;;;;;;12.02;6.13;;;;;;;18.55;46.50;100367.59;5076081;28;20049;-85
2022/04/06 08:42:41;;;;;;;13.40;5.97;;;;;;;18.61;46.01;100331.47;5078497;28;20104;-85
2022/04/06 08:45:08;;;;;;;9.32;5.85;;;;;;;18.30;45.83;100273.25;5098329;28;20067;-86
2022/04/06 08:47:36;;;;;;;10.32;5.45;;;;;;;18.55;45.44;100307.38;5078690;28;20052;-84
2022/04/06 08:50:05;;;;;;;9.15;4.40;;;;;;;19.07;44.92;100375.03;5083026;28;20047;-84
2022/04/06 08:52:34;;;;;;;11.60;4.85;;;;;;;18.61;44.51;100255.94;5086432;28;20417;-85
2022/04/06 08:55:21;;;;;;;9.50;4.72;;;;;;;19.73;44.08;100405.59;5076947;28;20048;-85
2022/04/06 08:57:48;;;;;;;11.02;4.97;;;;;;;19.39;43.92;100348.00;5078477;28;20075;-85
2022/04/06 09:00:17;;;;;;;7.47;3.95;;;;;;;19.83;43.64;100399.50;5073359;28;20044;-83
2022/04/06 09:02:45;;;;;;;7.82;4.22;;;;;;;19.73;43.29;100403.56;5085257;28;20068;-85
2022/04/06 09:05:13;;;;;;;11.85;4.35;;;;;;;19.64;43.31;100422.63;5081766;28;20052;-87
2022/04/06 09:07:41;;;;;;;10.90;4.68;;;;;;;19.06;43.16;100316.78;5075449;28;20052;-84
2022/04/06 09:10:09;;;;;;;11.32;4.93;;;;;;;19.96;42.71;100395.53;5080823;28;20048;-87
2022/04/06 09:12:36;;;;;;;7.38;3.88;;;;;;;19.98;41.98;100347.81;5078131;28;20040;-76
2022/04/06 09:15:08;;;;;;;9.45;4.28;;;;;;;20.65;41.43;100330.72;5071553;28;20421;-84
2022/04/06 09:17:46;;;;;;;8.73;4.88;;;;;;;21.27;40.48;100335.19;5104191;28;20139;-83
2022/04/06 09:20:14;;;;;;;7.72;3.85;;;;;;;21.08;39.49;100244.13;5071299;28;20463;-85
2022/04/06 09:22:47;;;;;;;8.77;3.97;;;;;;;21.75;39.10;100348.44;5074169;28;20453;-88
2022/04/06 09:25:16;;;;;;;8.52;4.45;;;;;;;21.82;38.71;100339.28;5073897;28;20110;-83
2022/04/06 09:27:43;;;;;;;9.65;4.63;;;;;;;22.17;38.59;100335.84;5069943;28;20105;-84
2022/04/06 09:30:11;;;;;;;8.88;4.05;;;;;;;22.81;37.77;100383.06;5085819;28;20769;-80
2022/04/06 09:32:41;;;;;;;7.25;4.07;;;;;;;23.40;36.75;100453.31;5074333;28;20048;-82
2022/04/06 09:35:25;;;;;;;12.05;4.35;;;;;;;23.15;36.94;100429.94;5078602;28;20056;-83
2022/04/06 09:38:12;;;;;;;10.35;4.80;;;;;;;23.34;36.63;100451.13;5078961;28;20142;-84
2022/04/06 09:40:40;;;;;;;7.65;4.00;;;;;;;22.71;35.34;100358.81;5086630;28;20052;-83
2022/04/06 09:43:09;;;;;;;6.10;3.47;;;;;;;22.62;35.18;100348.81;5078289;28;20563;-84
2022/04/06 09:48:22;;;;;;;13.85;3.95;;;;;;;23.80;34.26;100454.28;5080434;28;20049;-83
2022/04/06 09:50:55;;;;;;;6.78;3.75;;;;;;;24.16;33.65;100444.47;5082760;28;20052;-81
2022/04/06 09:53:30;;;;;;;5.70;3.70;;;;;;;23.67;33.14;100319.56;5080052;28;20080;-86
2022/04/06 09:55:57;;;;;;;8.73;4.35;;;;;;;24.93;32.39;100477.00;5082640;28;20053;-83
2022/04/06 09:58:27;;;;;;;7.75;4.50;;;;;;;24.79;31.64;100420.44;5076335;28;20041;-85
2022/04/06 10:00:54;;;;;;;7.00;4.82;;;;;;;25.21;31.89;100437.53;5078280;28;20052;-85
2022/04/06 10:03:21;;;;;;;7.47;4.15;;;;;;;25.68;31.23;100464.81;5091101;28;20453;-85
2022/04/06 10:05:51;;;;;;;9.45;3.80;;;;;;;25.62;31.18;100412.00;5080578;28;20071;-84
2022/04/06 10:08:21;;;;;;;8.82;3.80;;;;;;;26.00;30.59;100453.03;5076559;28;20063;-85
2022/04/06 10:10:51;;;;;;;5.03;2.95;;;;;;;26.07;30.31;100469.47;5092345;28;20055;-84
2022/04/06 10:13:19;;;;;;;5.78;4.30;;;;;;;25.21;29.68;100371.78;5085934;28;20135;-83
2022/04/06 10:16:12;;;;;;;7.88;3.70;;;;;;;25.45;30.03;100469.75;5081387;28;20044;-86
2022/04/06 10:18:42;;;;;;;4.65;3.08;;;;;;;25.32;29.93;100428.28;5081012;28;20041;-85
2022/04/06 10:21:18;;;;;;;6.95;3.10;;;;;;;24.85;29.71;100316.09;5083699;28;20067;-85
2022/04/06 10:23:51;;;;;;;5.82;3.30;;;;;;;26.08;29.73;100500.53;5075598;28;20071;-86
2022/04/06 10:26:51;;;;;;;6.65;3.22;;;;;;;26.16;29.55;100496.59;5080456;28;20044;-84
2022/04/06 10:29:19;;;;;;;6.47;4.05;;;;;;;25.97;29.08;100462.38;5095106;28;20067;-86
2022/04/06 10:31:46;;;;;;;7.45;4.82;;;;;;;26.56;28.54;100508.56;5077303;28;20071;-87
2022/04/06 10:34:22;;;;;;;6.72;4.13;;;;;;;26.34;28.49;100510.31;5079479;28;20074;-86
2022/04/06 10:37:10;;;;;;;6.18;4.05;;;;;;;26.12;29.00;100504.31;5082247;28;20522;-89
2022/04/06 10:39:57;;;;;;;8.95;4.25;;;;;;;26.46;28.73;100507.19;5075735;28;20071;-88
2022/04/06 10:42:31;;;;;;;7.90;4.35;;;;;;;26.35;28.25;100437.50;5104889;28;20048;-87
2022/04/06 10:45:03;;;;;;;7.35;4.20;;;;;;;25.40;28.50;100267.97;5097262;28;20055;-88
2022/04/06 10:47:31;;;;;;;8.55;4.47;;;;;;;26.11;27.73;100376.72;5095372;28;20056;-87
2022/04/06 10:50:13;;;;;;;6.25;4.22;;;;;;;27.05;28.15;100511.16;5089878;22;20106;-71
2022/04/06 10:52:43;;;;;;;10.60;5.03;;;;;;;26.83;27.75;100484.31;5062008;28;20143;-71
2022/04/06 10:55:11;;;;;;;;;;;;;;;26.41;29.27;100516.13;5065627;28;20066;-70
2022/04/06 10:58:01;;;;;;;6.82;5.10;;;;;;;26.57;28.63;100507.38;5066395;28;20327;-71
2022/04/06 11:00:30;;;;;;;10.93;5.70;;;;;;;26.98;28.81;100511.09;5061175;28;20084;-70
2022/04/06 11:03:15;;;;;;;11.45;6.55;;;;;;;27.28;28.90;100505.28;5043572;28;20076;-71
2022/04/06 11:05:50;;;;;;;8.57;5.78;;;;;;;28.02;28.19;100509.13;5045833;28;20068;-71
2022/04/06 11:11:45;;;;;;;10.80;6.75;;;;;;;27.82;27.99;100517.19;5062894;28;20419;-70
2022/04/06 11:14:24;;;;;;;14.20;7.05;;;;;;;27.70;28.61;100517.50;5047888;28;20060;-71
2022/04/06 11:16:52;;;;;;;11.90;6.85;;;;;;;27.78;28.64;100519.22;5068727;28;20140;-70
2022/04/06 11:19:19;;;;;;;14.85;8.32;;;;;;;27.61;28.46;100510.03;5066593;28;20044;-71
2022/04/06 11:21:48;;;;;;;13.55;7.50;;;;;;;27.64;28.78;100517.84;5074152;28;20139;-71
2022/04/06 11:24:21;;;;;;;11.10;7.50;;;;;;;27.51;28.96;100522.25;5070897;28;20060;-71
2022/04/06 11:26:48;;;;;;;14.10;9.32;;;;;;;27.19;29.01;100532.63;5062407;28;20143;-70
2022/04/06 11:29:15;;;;;;;10.23;7.88;;;;;;;27.04;29.17;100531.59;5070787;28;20044;-71
2022/04/06 11:31:55;;;;;;;10.77;8.60;;;;;;;27.11;29.00;100538.25;5067676;28;20140;-72
2022/04/06 11:34:39;;;;;;;22.98;9.63;;;;;;;27.29;29.27;100526.16;5066924;28;20048;-71
2022/04/06 11:37:09;;;;;;;13.27;10.00;;;;;;;27.35;29.33;100527.44;5069159;28;20155;-72
2022/04/06 11:39:36;;;;;;;;;;;;;;;27.10;29.88;100541.50;5065596;28;20044;-71
2022/04/06 11:42:14;;;;;;;15.30;8.85;;;;;;;27.39;29.11;100536.91;5071731;28;19924;-71